Time;durP1;ratioP1;P1;durP2;ratioP2;P2;SDS_P1;SDS_P2;PMS_P1;PMS_P2;Temp;Humidity;BMP_temperature;BMP_pressure;BME280_temperature;BME280_humidity;BME280_pressure;Samples;Min_cycle;Max_cycle;Signal;HPM_P1;HPM_P2
2021/10/12 00:01:51;;;;;;;4.30;2.08;;;13.40;99.90;;;;;;4132382;28;20651;-74
2021/10/12 00:03:51;;;;;;;5.57;2.13;;;13.40;99.90;;;;;;4131559;28;20038;-73
2021/10/12 00:05:52;;;;;;;6.03;2.50;;;13.40;99.90;;;;;;4114769;28;20695;-74
2021/10/12 00:07:53;;;;;;;5.75;2.38;;;13.40;99.90;;;;;;4131075;28;20088;-73
2021/10/12 00:09:53;;;;;;;5.07;2.35;;;13.40;99.90;;;;;;4125926;28;20033;-73
2021/10/12 00:11:54;;;;;;;5.25;1.95;;;13.40;99.90;;;;;;4135571;28;20064;-74
2021/10/12 00:13:54;;;;;;;4.78;2.30;;;13.40;99.90;;;;;;4133099;28;20464;-74
2021/10/12 00:15:55;;;;;;;6.50;2.17;;;13.40;99.90;;;;;;4132067;28;20042;-74
2021/10/12 00:17:55;;;;;;;5.75;2.47;;;13.40;99.90;;;;;;4130988;28;20037;-73
2021/10/12 00:19:56;;;;;;;7.43;2.65;;;13.40;99.90;;;;;;4131267;28;20041;-73
2021/10/12 00:21:58;;;;;;;7.63;2.35;;;13.40;99.90;;;;;;4132633;28;20446;-73
2021/10/12 00:23:58;;;;;;;3.80;2.03;;;13.30;99.90;;;;;;4138641;28;20075;-73
2021/10/12 00:25:59;;;;;;;5.60;2.38;;;13.30;99.90;;;;;;4130708;28;20058;-74
2021/10/12 00:28:00;;;;;;;5.78;2.28;;;13.30;99.90;;;;;;4130944;28;20087;-74
2021/10/12 00:30:00;;;;;;;5.05;2.45;;;13.30;99.90;;;;;;4133842;28;20130;-74
2021/10/12 00:32:02;;;;;;;6.00;2.38;;;13.30;99.90;;;;;;4129531;28;20038;-73
2021/10/12 00:34:02;;;;;;;4.90;2.20;;;13.30;99.90;;;;;;4130496;28;20030;-74
2021/10/12 00:36:03;;;;;;;5.47;2.80;;;13.30;99.90;;;;;;4128905;28;20027;-74
2021/10/12 00:38:04;;;;;;;6.38;2.92;;;13.30;99.90;;;;;;4134711;28;20478;-73
2021/10/12 00:40:05;;;;;;;5.85;2.55;;;13.30;99.90;;;;;;4136241;28;20038;-74
2021/10/12 00:42:06;;;;;;;6.10;2.70;;;13.20;99.90;;;;;;4138968;28;20045;-74
2021/10/12 00:44:07;;;;;;;10.77;2.47;;;13.20;99.90;;;;;;4134011;28;20386;-74
2021/10/12 00:46:08;;;;;;;3.97;1.98;;;13.20;99.90;;;;;;4135825;28;20038;-75
2021/10/12 00:48:09;;;;;;;5.90;2.30;;;13.20;99.90;;;;;;4132975;28;20034;-74
2021/10/12 00:50:10;;;;;;;5.68;2.30;;;13.20;99.90;;;;;;4135611;28;20023;-74
2021/10/12 00:52:10;;;;;;;6.05;2.28;;;13.20;99.90;;;;;;4125924;28;20057;-74
2021/10/12 00:54:11;;;;;;;8.70;2.83;;;13.20;99.90;;;;;;4127710;28;20057;-74
2021/10/12 00:56:12;;;;;;;7.65;3.13;;;13.20;99.90;;;;;;4130553;28;20603;-74
2021/10/12 00:58:13;;;;;;;6.45;2.78;;;13.20;99.90;;;;;;4133492;28;20156;-74
2021/10/12 01:00:14;;;;;;;7.53;2.53;;;13.20;99.90;;;;;;4126432;28;20550;-75
2021/10/12 01:02:15;;;;;;;7.43;2.97;;;13.20;99.90;;;;;;4136154;28;20316;-74
2021/10/12 01:04:16;;;;;;;5.40;2.22;;;13.20;99.90;;;;;;4130612;28;20088;-74
2021/10/12 01:06:17;;;;;;;8.07;2.60;;;13.20;99.90;;;;;;4134225;28;20061;-74
2021/10/12 01:08:17;;;;;;;7.50;2.42;;;13.20;99.90;;;;;;4130985;28;20034;-74
2021/10/12 01:10:18;;;;;;;7.85;2.70;;;13.10;99.90;;;;;;4128930;28;20034;-74
2021/10/12 01:12:18;;;;;;;6.70;2.40;;;13.10;99.90;;;;;;4135672;28;20100;-74
2021/10/12 01:14:19;;;;;;;8.38;2.58;;;13.20;99.90;;;;;;4130885;28;20050;-74
2021/10/12 01:16:20;;;;;;;4.35;2.20;;;13.10;99.90;;;;;;4130624;28;20034;-74
2021/10/12 01:18:20;;;;;;;8.65;2.60;;;13.20;99.90;;;;;;4132959;28;20062;-74
2021/10/12 01:20:24;;;;;;;5.78;2.40;;;13.20;99.90;;;;;;4129336;28;20030;-75
2021/10/12 01:22:25;;;;;;;6.05;2.50;;;13.20;99.90;;;;;;4135334;28;20042;-74
2021/10/12 01:24:25;;;;;;;8.85;2.40;;;13.20;99.90;;;;;;4138077;28;20034;-74
2021/10/12 01:26:26;;;;;;;5.18;2.42;;;13.20;99.90;;;;;;4134700;28;20113;-74
2021/10/12 01:28:28;;;;;;;7.00;2.97;;;13.20;99.90;;;;;;4137356;28;20057;-74
2021/10/12 01:30:29;;;;;;;7.78;2.90;;;13.20;99.90;;;;;;4138110;28;20038;-74
2021/10/12 01:32:30;;;;;;;9.20;3.20;;;13.20;99.90;;;;;;4131220;28;20033;-74
2021/10/12 01:34:30;;;;;;;4.60;2.55;;;13.20;99.90;;;;;;4128770;28;20026;-74
2021/10/12 01:36:31;;;;;;;4.00;2.42;;;13.20;99.90;;;;;;4135203;28;20066;-74
2021/10/12 01:38:32;;;;;;;8.77;2.70;;;13.10;99.90;;;;;;4129541;28;20447;-74
2021/10/12 01:40:33;;;;;;;6.40;2.53;;;13.10;99.90;;;;;;4131656;28;20359;-74
2021/10/12 01:42:34;;;;;;;7.88;2.75;;;13.10;99.90;;;;;;4132361;28;20375;-74
2021/10/12 01:44:35;;;;;;;4.85;2.13;;;13.10;99.90;;;;;;4128919;28;20061;-74
2021/10/12 01:46:36;;;;;;;5.45;2.53;;;13.10;99.90;;;;;;4133112;28;20525;-74
2021/10/12 01:48:37;;;;;;;5.63;2.35;;;13.10;99.90;;;;;;4127495;28;20041;-74
2021/10/12 01:50:37;;;;;;;6.78;2.53;;;13.10;99.90;;;;;;4135370;28;20033;-74
2021/10/12 01:52:39;;;;;;;3.92;2.30;;;13.10;99.90;;;;;;4132987;28;20443;-74
2021/10/12 01:54:39;;;;;;;4.95;2.17;;;13.10;99.90;;;;;;4131744;28;20026;-74
2021/10/12 01:56:40;;;;;;;6.07;2.17;;;13.10;99.90;;;;;;4111499;28;20026;-74
2021/10/12 01:58:40;;;;;;;6.05;2.25;;;13.10;99.90;;;;;;4132638;28;20124;-74
2021/10/12 02:00:41;;;;;;;7.22;2.50;;;13.10;99.90;;;;;;4133783;28;20701;-74
2021/10/12 02:02:42;;;;;;;7.03;2.90;;;13.10;99.90;;;;;;4129520;28;20057;-74
2021/10/12 02:04:43;;;;;;;6.80;2.90;;;13.00;99.90;;;;;;4127550;28;20037;-74
2021/10/12 02:06:43;;;;;;;7.15;2.30;;;13.00;99.90;;;;;;4135414;28;20475;-74
2021/10/12 02:08:44;;;;;;;6.50;2.60;;;13.00;99.90;;;;;;4136177;28;20433;-74
2021/10/12 02:10:45;;;;;;;3.60;2.08;;;13.00;99.90;;;;;;4133030;28;20064;-74
2021/10/12 02:12:48;;;;;;;7.82;2.70;;;13.00;99.90;;;;;;4137427;28;20081;-74
2021/10/12 02:14:49;;;;;;;4.70;2.40;;;13.00;99.90;;;;;;4131083;28;20041;-74
2021/10/12 02:16:51;;;;;;;3.28;2.25;;;12.90;99.90;;;;;;4133509;28;20487;-74
2021/10/12 02:18:51;;;;;;;5.93;2.33;;;13.00;99.90;;;;;;4125362;28;20510;-74
2021/10/12 02:20:52;;;;;;;5.90;2.40;;;13.00;99.90;;;;;;4123344;28;20031;-74
2021/10/12 02:22:52;;;;;;;4.63;2.22;;;13.00;99.90;;;;;;4127397;28;20140;-74
2021/10/12 02:24:53;;;;;;;5.50;2.50;;;13.00;99.90;;;;;;4133908;28;20127;-73
2021/10/12 02:26:53;;;;;;;5.00;2.50;;;13.00;99.90;;;;;;4129925;28;20435;-74
2021/10/12 02:28:54;;;;;;;5.22;2.00;;;12.90;99.90;;;;;;4127702;28;20022;-73
2021/10/12 02:30:55;;;;;;;5.80;2.50;;;13.00;99.90;;;;;;4128529;28;20587;-73
2021/10/12 02:32:55;;;;;;;4.80;2.45;;;12.90;99.90;;;;;;4129148;28;20502;-74
2021/10/12 02:34:56;;;;;;;6.22;2.38;;;12.90;99.90;;;;;;4132912;28;20033;-74
2021/10/12 02:36:56;;;;;;;4.55;1.95;;;12.90;99.90;;;;;;4124889;28;20042;-73
2021/10/12 02:38:57;;;;;;;4.10;2.45;;;12.90;99.90;;;;;;4128475;28;20042;-73
2021/10/12 02:40:58;;;;;;;7.70;2.58;;;13.00;99.90;;;;;;4133021;28;20060;-74
2021/10/12 02:42:59;;;;;;;5.88;2.80;;;12.90;99.90;;;;;;4126657;28;20607;-73
2021/10/12 02:45:00;;;;;;;4.68;2.08;;;13.00;99.90;;;;;;4129656;28;20034;-73
2021/10/12 02:47:01;;;;;;;5.63;2.55;;;13.00;99.90;;;;;;4135254;28;20034;-73
2021/10/12 02:49:01;;;;;;;5.35;2.80;;;12.90;99.90;;;;;;4131947;28;20022;-73
2021/10/12 02:51:02;;;;;;;5.63;2.78;;;12.90;99.90;;;;;;4129808;28;20031;-73
2021/10/12 02:53:03;;;;;;;4.43;2.50;;;12.80;99.90;;;;;;4137114;28;20034;-73
2021/10/12 02:55:05;;;;;;;6.57;3.08;;;12.90;99.90;;;;;;4132047;28;20033;-73
2021/10/12 02:57:05;;;;;;;9.23;3.33;;;12.80;99.90;;;;;;4127256;28;20426;-73
2021/10/12 02:59:06;;;;;;;8.05;2.75;;;12.80;99.90;;;;;;4126675;28;20043;-73
2021/10/12 03:01:07;;;;;;;5.70;2.65;;;12.70;99.90;;;;;;4127973;28;20066;-73
2021/10/12 03:03:09;;;;;;;6.38;2.80;;;12.70;99.90;;;;;;4137324;28;20063;-73
2021/10/12 03:05:10;;;;;;;7.22;2.95;;;12.70;99.90;;;;;;4139437;28;20034;-74
2021/10/12 03:07:11;;;;;;;4.82;2.97;;;12.70;99.90;;;;;;4128671;28;20038;-73
2021/10/12 03:09:11;;;;;;;4.05;2.45;;;12.70;99.90;;;;;;4130003;28;20168;-73
2021/10/12 03:11:12;;;;;;;6.78;2.92;;;12.70;99.90;;;;;;4130868;28;20049;-73
2021/10/12 03:13:13;;;;;;;6.03;2.75;;;12.70;99.90;;;;;;4123296;28;20048;-73
2021/10/12 03:15:13;;;;;;;5.90;2.88;;;12.60;99.90;;;;;;4121923;28;22132;-74
2021/10/12 03:17:14;;;;;;;7.93;3.17;;;12.60;99.90;;;;;;4130947;28;20094;-73
2021/10/12 03:19:16;;;;;;;5.45;2.78;;;12.70;99.90;;;;;;4135927;28;20042;-73
2021/10/12 03:21:18;;;;;;;5.85;2.72;;;12.70;99.90;;;;;;4121266;28;20134;-74
2021/10/12 03:23:18;;;;;;;3.70;2.90;;;12.70;99.90;;;;;;4123264;28;20046;-73
2021/10/12 03:25:19;;;;;;;4.13;2.67;;;12.70;99.90;;;;;;4125907;28;20060;-74
2021/10/12 03:27:20;;;;;;;5.95;3.05;;;12.70;99.90;;;;;;4130540;28;20486;-73
2021/10/12 03:29:20;;;;;;;8.93;3.28;;;12.60;99.90;;;;;;4124656;28;20227;-73
2021/10/12 03:31:21;;;;;;;5.50;2.92;;;12.60;99.90;;;;;;4129701;28;20034;-73
2021/10/12 03:33:22;;;;;;;8.80;4.05;;;12.60;99.90;;;;;;4134748;28;20046;-73
2021/10/12 03:35:37;;;;;;;7.25;3.40;;;12.60;99.90;;;;;;4136346;28;20034;-73
2021/10/12 03:37:38;;;;;;;6.97;3.53;;;12.60;99.90;;;;;;4136874;28;20360;-73
2021/10/12 03:39:38;;;;;;;8.48;3.72;;;12.60;99.90;;;;;;4128715;28;20033;-74
2021/10/12 03:41:39;;;;;;;6.13;3.28;;;12.60;99.90;;;;;;4126698;28;20034;-74
2021/10/12 03:43:39;;;;;;;7.05;3.53;;;12.60;99.90;;;;;;4135364;28;20026;-74
2021/10/12 03:45:40;;;;;;;6.57;3.80;;;12.60;99.90;;;;;;4137229;28;20065;-74
2021/10/12 03:47:41;;;;;;;7.18;3.47;;;12.60;99.90;;;;;;4116209;28;20022;-74
2021/10/12 03:49:41;;;;;;;7.05;3.33;;;12.60;99.90;;;;;;4138536;28;20144;-74
2021/10/12 03:51:43;;;;;;;7.40;3.60;;;12.70;99.90;;;;;;4130610;28;20575;-73
2021/10/12 03:53:44;;;;;;;6.30;3.15;;;12.70;99.90;;;;;;4130512;28;20025;-73
2021/10/12 03:55:44;;;;;;;7.05;3.40;;;12.70;99.90;;;;;;4136376;28;20038;-74
2021/10/12 03:57:45;;;;;;;10.52;3.72;;;12.70;99.90;;;;;;4139059;28;20042;-74
2021/10/12 03:59:45;;;;;;;5.78;3.55;;;12.70;99.90;;;;;;4125009;28;20122;-74
2021/10/12 04:01:46;;;;;;;8.35;3.05;;;12.70;99.90;;;;;;4133164;28;20026;-74
2021/10/12 04:03:48;;;;;;;8.02;3.72;;;12.70;99.90;;;;;;4140433;28;20036;-74
2021/10/12 04:05:49;;;;;;;7.78;4.07;;;12.70;99.90;;;;;;4142931;28;20022;-74
2021/10/12 04:07:50;;;;;;;7.28;3.63;;;12.70;99.90;;;;;;4140738;28;20116;-73
2021/10/12 04:09:50;;;;;;;6.95;3.47;;;12.70;99.90;;;;;;4141976;28;20517;-73
2021/10/12 04:11:51;;;;;;;9.73;4.00;;;12.70;99.90;;;;;;4140977;28;20029;-74
2021/10/12 04:13:52;;;;;;;10.35;3.58;;;12.70;99.90;;;;;;4142729;28;20666;-74
2021/10/12 04:15:52;;;;;;;7.22;3.25;;;12.70;99.90;;;;;;4140822;28;20466;-74
2021/10/12 04:17:53;;;;;;;7.05;4.20;;;12.70;99.90;;;;;;4137031;28;20042;-73
2021/10/12 04:19:53;;;;;;;9.77;3.85;;;12.70;99.90;;;;;;4137928;28;20129;-74
2021/10/12 04:21:54;;;;;;;11.05;4.95;;;12.70;99.90;;;;;;4142329;28;20073;-74
2021/10/12 04:23:55;;;;;;;7.03;3.65;;;12.60;99.90;;;;;;4140311;28;20033;-74
2021/10/12 04:25:55;;;;;;;7.32;3.33;;;12.60;99.90;;;;;;4141512;28;20041;-74
2021/10/12 04:27:56;;;;;;;6.05;3.30;;;12.60;99.90;;;;;;4142023;28;20740;-74
2021/10/12 04:29:57;;;;;;;6.00;3.22;;;12.60;99.90;;;;;;4139982;28;20041;-74
2021/10/12 04:31:59;;;;;;;8.75;3.40;;;12.60;99.90;;;;;;4141980;28;20041;-74
2021/10/12 04:34:00;;;;;;;7.03;3.55;;;12.60;99.90;;;;;;4134943;28;20725;-74
2021/10/12 04:36:00;;;;;;;6.65;3.40;;;12.50;99.90;;;;;;4140350;28;20034;-74
2021/10/12 04:38:02;;;;;;;7.13;3.35;;;12.50;99.90;;;;;;4142191;28;20026;-74
2021/10/12 04:40:03;;;;;;;6.47;2.78;;;12.50;99.90;;;;;;4139899;28;20108;-74
2021/10/12 04:42:04;;;;;;;8.35;3.97;;;12.50;99.90;;;;;;4136405;28;20045;-74
2021/10/12 04:44:09;;;;;;;9.05;3.65;;;12.50;99.90;;;;;;4132676;28;20033;-74
2021/10/12 04:46:12;;;;;;;8.55;2.92;;;12.50;99.90;;;;;;4122809;28;20097;-74
2021/10/12 04:48:14;;;;;;;;;;;12.50;99.90;;;;;;4129110;28;20058;-74
2021/10/12 04:50:14;;;;;;;5.90;2.70;;;12.40;99.90;;;;;;4132197;28;19910;-74
2021/10/12 04:52:15;;;;;;;7.20;2.85;;;12.40;99.90;;;;;;4132819;28;20117;-74
2021/10/12 04:54:16;;;;;;;9.13;3.38;;;12.40;99.90;;;;;;4140211;28;20646;-74
2021/10/12 04:56:16;;;;;;;6.20;2.95;;;12.50;99.90;;;;;;4136385;28;20037;-74
2021/10/12 04:58:17;;;;;;;6.55;3.17;;;12.50;99.90;;;;;;4129994;28;20053;-74
2021/10/12 05:00:18;;;;;;;7.32;3.40;;;12.40;99.90;;;;;;4138945;28;20037;-74
2021/10/12 05:02:19;;;;;;;10.27;3.20;;;12.40;99.90;;;;;;4139370;28;20632;-74
2021/10/12 05:04:21;;;;;;;8.63;3.13;;;12.40;99.90;;;;;;4140717;28;20494;-74
2021/10/12 05:06:22;;;;;;;7.10;3.10;;;12.40;99.90;;;;;;4137616;28;20117;-74
2021/10/12 05:08:22;;;;;;;11.05;2.97;;;12.40;99.90;;;;;;4136803;28;20415;-73
2021/10/12 05:10:23;;;;;;;9.82;3.67;;;12.40;99.90;;;;;;4135819;28;20037;-74
2021/10/12 05:12:24;;;;;;;10.93;3.83;;;12.30;99.90;;;;;;4135847;28;20793;-74
2021/10/12 05:14:25;;;;;;;6.82;2.80;;;12.30;99.90;;;;;;4134922;28;20048;-74
2021/10/12 05:16:28;;;;;;;8.68;3.55;;;12.30;99.90;;;;;;4136493;28;20045;-73
2021/10/12 05:18:32;;;;;;;7.95;3.58;;;12.30;99.90;;;;;;4118060;28;20042;-74
2021/10/12 05:20:32;;;;;;;8.90;3.33;;;12.20;99.90;;;;;;4137598;28;20664;-74
2021/10/12 05:22:33;;;;;;;8.02;3.10;;;12.20;99.90;;;;;;4130862;28;20157;-75
2021/10/12 05:24:34;;;;;;;7.15;2.63;;;12.20;99.90;;;;;;4134315;28;20562;-74
2021/10/12 05:26:35;;;;;;;11.45;3.30;;;12.20;99.90;;;;;;4137912;28;20034;-75
2021/10/12 05:28:36;;;;;;;8.93;3.38;;;12.20;99.90;;;;;;4139014;28;20035;-75
2021/10/12 05:30:39;;;;;;;6.60;2.83;;;12.20;99.90;;;;;;4133788;28;20038;-74
2021/10/12 05:32:41;;;;;;;6.20;2.90;;;12.20;99.90;;;;;;4136919;28;20671;-75
2021/10/12 05:34:41;;;;;;;5.68;2.80;;;12.20;99.90;;;;;;4138679;28;20038;-75
2021/10/12 05:36:42;;;;;;;8.82;2.80;;;12.20;99.90;;;;;;4136827;28;20034;-75
2021/10/12 05:38:43;;;;;;;9.27;3.05;;;12.20;99.90;;;;;;4140614;28;20579;-75
2021/10/12 05:40:44;;;;;;;7.93;3.10;;;12.10;99.90;;;;;;4133426;28;20030;-75
2021/10/12 05:42:44;;;;;;;4.55;2.50;;;12.20;99.90;;;;;;4143060;28;20243;-74
2021/10/12 05:44:45;;;;;;;7.10;2.90;;;12.20;99.90;;;;;;4135443;28;20034;-74
2021/10/12 05:46:45;;;;;;;6.30;2.38;;;12.20;99.90;;;;;;4142675;28;20050;-73
2021/10/12 05:48:46;;;;;;;9.75;3.13;;;12.20;99.90;;;;;;4139793;28;20105;-74
2021/10/12 05:50:47;;;;;;;6.13;2.60;;;12.20;99.90;;;;;;4139439;28;20045;-74
2021/10/12 05:53:21;;;;;;;7.30;2.63;;;12.20;99.90;;;;;;4139415;28;20441;-74
2021/10/12 05:55:16;;;;;;;9.18;2.92;;;12.20;99.90;;;;;;4129114;28;20045;-73
2021/10/12 05:57:21;;;;;;;7.70;2.40;;;12.20;99.90;;;;;;4120817;28;20042;-74
2021/10/12 05:59:22;;;;;;;7.93;2.65;;;12.20;99.90;;;;;;4142364;28;20041;-74
2021/10/12 06:01:23;;;;;;;6.68;2.33;;;12.30;99.90;;;;;;4144012;28;20037;-74
2021/10/12 06:03:24;;;;;;;6.32;2.50;;;12.30;99.90;;;;;;4140701;28;20037;-74
2021/10/12 06:05:27;;;;;;;6.90;2.50;;;12.30;99.90;;;;;;4140705;28;20124;-74
2021/10/12 06:07:27;;;;;;;;;;;12.30;99.90;;;;;;4143037;28;20038;-74
2021/10/12 06:09:28;;;;;;;6.82;2.50;;;12.30;99.90;;;;;;4139373;28;20301;-74
2021/10/12 06:11:29;;;;;;;6.35;2.40;;;12.30;99.90;;;;;;4138900;28;20077;-74
2021/10/12 06:13:33;;;;;;;7.60;2.50;;;12.30;99.90;;;;;;4140166;28;20118;-74
2021/10/12 06:15:33;;;;;;;5.40;1.88;;;12.30;99.90;;;;;;4138121;28;20041;-74
2021/10/12 06:17:34;;;;;;;8.77;2.20;;;12.30;99.90;;;;;;4140301;28;20030;-74
2021/10/12 06:19:34;;;;;;;6.90;2.30;;;12.30;99.90;;;;;;4142360;28;20030;-74
2021/10/12 06:21:35;;;;;;;11.43;3.60;;;12.30;99.90;;;;;;4137574;28;20044;-74
2021/10/12 06:23:36;;;;;;;8.00;2.95;;;12.30;99.90;;;;;;4124696;28;20045;-74
2021/10/12 06:25:37;;;;;;;7.90;2.50;;;12.20;99.90;;;;;;4129402;28;20627;-74
2021/10/12 06:27:37;;;;;;;4.28;2.17;;;12.20;99.90;;;;;;4139495;28;20378;-74
2021/10/12 06:29:38;;;;;;;5.85;2.15;;;12.20;99.90;;;;;;4134267;28;20034;-74
2021/10/12 06:31:39;;;;;;;5.97;2.40;;;12.20;99.90;;;;;;4132350;28;20145;-74
2021/10/12 06:33:39;;;;;;;6.60;2.33;;;12.20;99.90;;;;;;4127632;28;20040;-74
2021/10/12 06:35:40;;;;;;;5.15;2.42;;;12.20;99.90;;;;;;4136798;28;20053;-74
2021/10/12 06:37:40;;;;;;;5.85;2.10;;;12.20;99.90;;;;;;4155045;28;20033;-74
2021/10/12 06:39:41;;;;;;;7.45;2.20;;;12.10;99.90;;;;;;4144013;28;20038;-74
2021/10/12 06:41:42;;;;;;;8.45;2.40;;;12.20;99.90;;;;;;4141225;28;20119;-74
2021/10/12 06:43:42;;;;;;;9.18;2.58;;;12.10;99.90;;;;;;4137619;28;20041;-73
2021/10/12 06:45:44;;;;;;;3.47;1.83;;;12.10;99.90;;;;;;4139450;28;20025;-74
2021/10/12 06:47:46;;;;;;;4.53;2.00;;;12.20;99.90;;;;;;4140981;28;20626;-74
2021/10/12 06:49:46;;;;;;;4.55;2.08;;;12.20;99.90;;;;;;4134748;28;20106;-74
2021/10/12 06:51:48;;;;;;;3.30;2.00;;;12.20;99.90;;;;;;4132632;28;20402;-74
2021/10/12 06:53:49;;;;;;;4.78;2.00;;;12.30;99.90;;;;;;4141734;28;20481;-74
2021/10/12 06:55:50;;;;;;;4.95;1.88;;;12.30;99.90;;;;;;4138054;28;20054;-74
2021/10/12 06:57:51;;;;;;;4.78;2.35;;;12.30;99.90;;;;;;4142645;28;20121;-74
2021/10/12 06:59:51;;;;;;;8.88;2.60;;;12.30;99.90;;;;;;4138194;28;20054;-74
2021/10/12 07:01:52;;;;;;;5.68;2.10;;;12.40;99.90;;;;;;4137677;28;20036;-73
2021/10/12 07:03:53;;;;;;;10.82;3.00;;;12.30;99.90;;;;;;4142492;28;20042;-74
2021/10/12 07:05:54;;;;;;;5.55;2.03;;;12.30;99.90;;;;;;4132473;28;20094;-74
2021/10/12 07:07:57;;;;;;;6.68;2.20;;;12.30;99.90;;;;;;4135199;28;20034;-74
2021/10/12 07:09:59;;;;;;;4.68;1.92;;;12.20;99.90;;;;;;4140401;28;20050;-74
2021/10/12 07:12:00;;;;;;;3.85;1.73;;;12.30;99.90;;;;;;4140178;28;20117;-74
2021/10/12 07:14:00;;;;;;;6.63;2.58;;;12.30;99.90;;;;;;4135232;28;20034;-74
2021/10/12 07:16:01;;;;;;;9.75;2.88;;;12.30;99.90;;;;;;4133900;28;20030;-73
2021/10/12 07:18:01;;;;;;;6.07;2.72;;;12.30;99.90;;;;;;4126655;28;20043;-73
2021/10/12 07:20:03;;;;;;;9.38;3.58;;;12.30;99.90;;;;;;4132078;28;20022;-74
2021/10/12 07:22:03;;;;;;;6.55;2.58;;;12.20;99.90;;;;;;4123540;28;20050;-73
2021/10/12 07:24:04;;;;;;;9.02;2.80;;;12.30;99.90;;;;;;4144460;28;20036;-73
2021/10/12 07:26:05;;;;;;;6.78;2.70;;;12.30;99.90;;;;;;4126337;28;20030;-73
2021/10/12 07:28:06;;;;;;;5.80;2.65;;;12.30;99.90;;;;;;4130826;28;20036;-73
2021/10/12 07:30:07;;;;;;;4.95;2.38;;;12.30;99.90;;;;;;4141095;28;20120;-74
2021/10/12 07:32:09;;;;;;;7.30;3.15;;;12.30;99.90;;;;;;4140591;28;20068;-74
2021/10/12 07:34:10;;;;;;;5.03;2.70;;;12.40;99.90;;;;;;4134672;28;20060;-73
2021/10/12 07:36:11;;;;;;;7.30;3.03;;;12.40;99.90;;;;;;4137036;28;20061;-73
2021/10/12 07:38:13;;;;;;;8.05;2.65;;;12.40;99.90;;;;;;4139721;28;20065;-73
2021/10/12 07:40:13;;;;;;;8.45;2.47;;;12.40;99.90;;;;;;4132463;28;20541;-73
2021/10/12 07:42:14;;;;;;;9.95;3.50;;;12.40;99.90;;;;;;4138962;28;20077;-73
2021/10/12 07:44:14;;;;;;;9.30;2.72;;;12.40;99.90;;;;;;4136824;28;20041;-74
2021/10/12 07:46:15;;;;;;;4.55;2.40;;;12.40;99.90;;;;;;4139103;28;20038;-73
2021/10/12 07:48:17;;;;;;;11.18;3.28;;;12.40;99.90;;;;;;4137444;28;20034;-73
2021/10/12 07:50:18;;;;;;;7.97;3.47;;;12.40;99.90;;;;;;4140949;28;20398;-73
2021/10/12 07:52:21;;;;;;;4.78;2.90;;;12.40;99.90;;;;;;4142614;28;20057;-73
2021/10/12 07:54:27;;;;;;;;;;;12.40;99.90;;;;;;4136676;28;20576;-73
2021/10/12 07:56:36;;;;;;;6.25;2.78;;;12.40;99.90;;;;;;4138781;28;19952;-73
2021/10/12 07:58:37;;;;;;;7.97;3.22;;;12.40;99.90;;;;;;4141924;28;20046;-73
2021/10/12 08:00:37;;;;;;;6.60;2.85;;;12.40;99.90;;;;;;4139344;28;20045;-73
2021/10/12 08:02:38;;;;;;;7.35;2.97;;;12.40;99.90;;;;;;4140041;28;20054;-73
2021/10/12 08:04:43;;;;;;;5.28;3.05;;;12.40;99.90;;;;;;4143199;28;20030;-73
2021/10/12 08:06:43;;;;;;;10.48;2.92;;;12.40;99.90;;;;;;4155220;28;20030;-73
2021/10/12 08:08:44;;;;;;;7.53;3.20;;;12.50;99.90;;;;;;4124426;28;20065;-73
2021/10/12 08:10:44;;;;;;;7.85;3.15;;;12.50;99.90;;;;;;4143023;28;20158;-74
2021/10/12 08:12:50;;;;;;;6.90;3.00;;;12.50;99.90;;;;;;4136774;28;20048;-73
2021/10/12 08:14:57;;;;;;;4.75;2.65;;;12.50;99.90;;;;;;4139037;28;20065;-73
2021/10/12 08:16:58;;;;;;;9.02;3.38;;;12.50;99.90;;;;;;4140307;28;20050;-73
2021/10/12 08:19:01;;;;;;;8.43;3.55;;;12.50;99.90;;;;;;4136560;28;20519;-73
2021/10/12 08:21:02;;;;;;;9.82;3.35;;;12.50;99.90;;;;;;4137037;28;20707;-73
2021/10/12 08:23:02;;;;;;;8.60;3.30;;;12.50;99.90;;;;;;4145343;28;20042;-72
2021/10/12 08:25:06;;;;;;;9.35;3.10;;;12.50;99.90;;;;;;4145072;28;20038;-72
2021/10/12 08:27:08;;;;;;;6.38;3.08;;;12.50;99.90;;;;;;4142320;28;20054;-72
2021/10/12 08:29:09;;;;;;;9.02;3.60;;;12.60;99.90;;;;;;4144082;28;20045;-72
2021/10/12 08:31:09;;;;;;;6.68;2.88;;;12.60;99.90;;;;;;4141794;28;20072;-72
2021/10/12 08:33:10;;;;;;;6.93;2.80;;;12.60;99.90;;;;;;4143167;28;20038;-72
2021/10/12 08:35:11;;;;;;;8.38;3.28;;;12.50;99.90;;;;;;4137216;28;20033;-72
2021/10/12 08:37:11;;;;;;;6.65;3.15;;;12.60;99.90;;;;;;4142031;28;20299;-72
2021/10/12 08:39:12;;;;;;;7.13;3.00;;;12.60;99.90;;;;;;4142128;28;20069;-72
2021/10/12 08:41:15;;;;;;;5.88;3.28;;;12.60;99.90;;;;;;4136730;28;20081;-72
2021/10/12 08:43:15;;;;;;;;;;;12.60;99.90;;;;;;4141731;28;21054;-72
2021/10/12 08:45:17;;;;;;;7.18;2.80;;;12.60;99.90;;;;;;4101315;28;19996;-72
2021/10/12 08:47:18;;;;;;;5.90;3.50;;;12.60;99.90;;;;;;4133277;28;20065;-72
2021/10/12 08:49:18;;;;;;;5.38;3.10;;;12.60;99.90;;;;;;4133411;28;20034;-72
2021/10/12 08:51:19;;;;;;;5.78;2.78;;;12.70;99.90;;;;;;4128337;28;20105;-72
2021/10/12 08:53:20;;;;;;;4.78;3.15;;;12.70;99.90;;;;;;4137078;28;20030;-72
2021/10/12 08:55:20;;;;;;;6.03;3.10;;;12.70;99.90;;;;;;4144672;28;20124;-72
2021/10/12 08:57:35;;;;;;;6.57;2.92;;;12.70;99.90;;;;;;4147859;28;20053;-72
2021/10/12 08:59:35;;;;;;;6.28;2.95;;;12.70;99.90;;;;;;4138789;28;20042;-72
2021/10/12 09:02:03;;;;;;;5.45;3.70;;;12.70;99.90;;;;;;4146782;28;20745;-72
2021/10/12 09:04:07;;;;;;;7.00;3.42;;;12.60;99.90;;;;;;4135921;28;20688;-72
2021/10/12 09:06:07;;;;;;;4.72;3.05;;;12.70;99.90;;;;;;4146883;28;20037;-72
2021/10/12 09:08:08;;;;;;;9.10;3.38;;;12.70;99.90;;;;;;4149251;28;20038;-72
2021/10/12 09:10:19;;;;;;;7.72;3.45;;;12.70;99.90;;;;;;4147378;28;20048;-72
2021/10/12 09:12:42;;;;;;;4.20;3.20;;;12.70;99.90;;;;;;4144202;28;20052;-72
2021/10/12 09:14:59;;;;;;;4.57;3.05;;;12.70;99.90;;;;;;4149408;28;20034;-72
2021/10/12 09:17:05;;;;;;;4.63;3.00;;;12.70;99.90;;;;;;4146948;28;20056;-72
2021/10/12 09:19:13;;;;;;;3.55;3.00;;;12.70;99.90;;;;;;4149427;28;20749;-72
2021/10/12 09:21:25;;;;;;;4.15;2.90;;;12.80;99.90;;;;;;4143983;28;20069;-72
2021/10/12 09:23:28;;;;;;;4.78;2.95;;;12.80;99.90;;;;;;4146574;28;20787;-72
2021/10/12 09:25:41;;;;;;;5.22;3.67;;;12.80;99.90;;;;;;4145202;28;20037;-73
2021/10/12 09:27:57;;;;;;;3.55;2.80;;;12.80;99.90;;;;;;4147307;28;20568;-72
2021/10/12 09:30:08;;;;;;;6.38;3.95;;;12.70;99.90;;;;;;4145942;28;20038;-72
2021/10/12 09:32:09;;;;;;;4.45;3.05;;;12.70;99.90;;;;;;4143637;28;20029;-72
2021/10/12 09:34:13;;;;;;;4.07;3.00;;;12.70;99.90;;;;;;4148429;28;20081;-71
2021/10/12 09:36:27;;;;;;;4.97;3.72;;;12.70;99.90;;;;;;4137381;28;20049;-72
2021/10/12 09:38:27;;;;;;;5.45;3.70;;;12.80;99.90;;;;;;4144022;28;20034;-72
2021/10/12 09:40:28;;;;;;;4.03;3.30;;;12.80;99.90;;;;;;4142027;28;20293;-72
2021/10/12 09:42:41;;;;;;;6.15;3.50;;;12.80;99.90;;;;;;4141319;28;20060;-72
2021/10/12 09:44:51;;;;;;;;;;;12.80;99.90;;;;;;4147155;28;20465;-72
2021/10/12 09:46:53;;;;;;;6.28;4.50;;;12.80;99.90;;;;;;4133625;28;19918;-72
2021/10/12 09:48:53;;;;;;;8.40;5.28;;;12.80;99.90;;;;;;4134390;28;20042;-72
2021/10/12 09:51:08;;;;;;;9.52;6.35;;;12.80;99.90;;;;;;4148962;28;20034;-72
2021/10/12 09:53:29;;;;;;;10.80;6.05;;;12.80;99.90;;;;;;4142483;28;20052;-72
2021/10/12 09:55:37;;;;;;;5.90;4.90;;;12.70;99.90;;;;;;4143022;28;20351;-72
2021/10/12 09:57:40;;;;;;;8.30;5.07;;;12.70;99.90;;;;;;4142255;28;20282;-72
2021/10/12 09:59:40;;;;;;;;;;;12.70;99.90;;;;;;4145547;28;20139;-72
2021/10/12 10:01:43;;;;;;;9.70;5.32;;;12.80;99.90;;;;;;4144480;28;19921;-72
2021/10/12 10:03:44;;;;;;;16.60;8.88;;;12.80;99.90;;;;;;4143184;28;20038;-72
2021/10/12 10:05:45;;;;;;;10.00;5.85;;;12.80;99.90;;;;;;4141192;28;20124;-72
2021/10/12 10:07:48;;;;;;;7.53;5.07;;;12.90;99.90;;;;;;4140194;28;20046;-73
2021/10/12 10:09:54;;;;;;;8.05;4.80;;;12.90;99.90;;;;;;4142815;28;20073;-73
2021/10/12 10:11:55;;;;;;;10.77;6.20;;;12.90;99.90;;;;;;4140632;28;20084;-72
2021/10/12 10:13:58;;;;;;;12.38;6.47;;;12.90;99.90;;;;;;4145469;28;20421;-72
2021/10/12 10:15:59;;;;;;;11.35;5.88;;;13.00;99.90;;;;;;4144641;28;20046;-72
2021/10/12 10:18:00;;;;;;;8.65;5.78;;;12.90;99.90;;;;;;4145723;28;20038;-72
2021/10/12 10:20:05;;;;;;;12.27;5.28;;;12.90;99.90;;;;;;4144392;28;20069;-72
2021/10/12 10:22:06;;;;;;;10.60;5.97;;;12.90;99.90;;;;;;4144311;28;20114;-72
2021/10/12 10:24:20;;;;;;;8.15;5.07;;;13.00;99.90;;;;;;4142140;28;20030;-72
2021/10/12 10:26:41;;;;;;;11.32;5.47;;;13.00;99.90;;;;;;4160331;28;20060;-72
2021/10/12 10:28:42;;;;;;;12.38;6.30;;;13.00;99.90;;;;;;4140400;28;20022;-72
2021/10/12 10:30:51;;;;;;;11.40;5.28;;;13.00;99.90;;;;;;4144003;28;20569;-72
2021/10/12 10:32:51;;;;;;;15.07;5.90;;;13.10;99.90;;;;;;4136224;28;20037;-72
2021/10/12 10:35:03;;;;;;;11.93;5.78;;;13.10;99.90;;;;;;4127697;28;20026;-72
2021/10/12 10:37:16;;;;;;;11.95;4.72;;;13.10;99.90;;;;;;4142969;28;20044;-72